Time;durP1;ratioP1;P1;durP2;ratioP2;P2;SDS_P1;SDS_P2;PMS_P1;PMS_P2;Temp;Humidity;BMP_temperature;BMP_pressure;BME280_temperature;BME280_humidity;BME280_pressure;Samples;Min_cycle;Max_cycle;Signal;HPM_P1;HPM_P2
2024/02/04 00:01:50;;;;;;;;;;;;;;;;;;5050590;28;19932;-63
2024/02/04 00:04:36;;;;;;;;;;;;;;;;;;5045062;28;19932;-63
2024/02/04 00:07:21;;;;;;;;;;;;;;;;;;5026182;28;20406;-63
2024/02/04 00:10:07;;;;;;;;;;;;;;;;;;5037463;28;19932;-63
2024/02/04 00:12:53;;;;;;;;;;;;;;;;;;5051938;28;19932;-63
2024/02/04 00:15:39;;;;;;;;;;;;;;;;;;5036304;28;19932;-63
2024/02/04 00:18:26;;;;;;;;;;;;;;;;;;5024929;28;19932;-63
2024/02/04 00:21:12;;;;;;;;;;;;;;;;;;5047179;28;19935;-63
2024/02/04 00:23:57;;;;;;;;;;;;;;;;;;5045440;28;19932;-63
2024/02/04 00:26:43;;;;;;;;;;;;;;;;;;5051679;28;19939;-63
2024/02/04 00:29:29;;;;;;;;;;;;;;;;;;5048525;28;19932;-64
2024/02/04 00:32:17;;;;;;;;;;;;;;;;;;5041003;28;19936;-64
2024/02/04 00:35:05;;;;;;;;;;;;;;;;;;5031752;28;19943;-63
2024/02/04 00:37:50;;;;;;;;;;;;;;;;;;5041842;28;19952;-63
2024/02/04 00:40:36;;;;;;;;;;;;;;;;;;5045067;28;19959;-63
2024/02/04 00:43:22;;;;;;;;;;;;;;;;;;5025558;28;19951;-63
2024/02/04 00:46:10;;;;;;;;;;;;;;;;;;5044532;28;19948;-63
2024/02/04 00:48:55;;;;;;;;;;;;;;;;;;5047825;28;20294;-63
2024/02/04 00:51:42;;;;;;;;;;;;;;;;;;5048715;28;19936;-63
2024/02/04 00:54:27;;;;;;;;;;;;;;;;;;5040506;28;20294;-63
2024/02/04 00:57:15;;;;;;;;;;;;;;;;;;5053632;28;19932;-63
2024/02/04 01:00:04;;;;;;;;;;;;;;;;;;5046756;28;19932;-63
2024/02/04 01:02:49;;;;;;;;;;;;;;;;;;5050443;28;19940;-63
2024/02/04 01:05:37;;;;;;;;;;;;;;;;;;5041554;28;19936;-63
2024/02/04 01:08:27;;;;;;;;;;;;;;;;;;5045802;28;19932;-63
2024/02/04 01:11:12;;;;;;;;;;;;;;;;;;5039446;28;20302;-63
2024/02/04 01:14:00;;;;;;;;;;;;;;;;;;5055259;28;19932;-63
2024/02/04 01:16:47;;;;;;;;;;;;;;;;;;5032478;28;19948;-63
2024/02/04 01:19:33;;;;;;;;;;;;;;;;;;5041534;28;19979;-64
2024/02/04 01:22:19;;;;;;;;;;;;;;;;;;5036133;28;19936;-64
2024/02/04 01:25:07;;;;;;;;;;;;;;;;;;5040456;28;19939;-64
2024/02/04 01:27:55;;;;;;;;;;;;;;;;;;5054648;28;19932;-64
2024/02/04 01:30:41;;;;;;;;;;;;;;;;;;5038375;28;19935;-64
2024/02/04 01:33:29;;;;;;;;;;;;;;;;;;5055023;28;19999;-64
2024/02/04 01:36:14;;;;;;;;;;;;;;;;;;5049485;28;19944;-64
2024/02/04 01:39:01;;;;;;;;;;;;;;;;;;5047680;28;20311;-63
2024/02/04 01:41:48;;;;;;;;;;;;;;;;;;5029862;28;20414;-63
2024/02/04 01:44:36;;;;;;;;;;;;;;;;;;5066062;28;20378;-63
2024/02/04 01:47:22;;;;;;;;;;;;;;;;;;5040565;28;19935;-63
2024/02/04 01:50:08;;;;;;;;;;;;;;;;;;5060063;28;19931;-63
2024/02/04 01:52:54;;;;;;;;;;;;;;;;;;5058503;28;19931;-63
2024/02/04 01:55:44;;;;;;;;;;;;;;;;;;5048617;28;19933;-63
2024/02/04 01:58:33;;;;;;;;;;;;;;;;;;5055319;28;19963;-64
2024/02/04 02:01:21;;;;;;;;;;;;;;;;;;5047927;28;19935;-64
2024/02/04 02:04:07;;;;;;;;;;;;;;;;;;5056813;28;19936;-64
2024/02/04 02:06:55;;;;;;;;;;;;;;;;;;5047955;28;19931;-64
2024/02/04 02:09:41;;;;;;;;;;;;;;;;;;5043260;28;19983;-64
2024/02/04 02:12:28;;;;;;;;;;;;;;;;;;5070119;28;19936;-64
2024/02/04 02:15:17;;;;;;;;;;;;;;;;;;5056678;28;19932;-64
2024/02/04 02:18:03;;;;;;;;;;;;;;;;;;5054059;28;19931;-64
2024/02/04 02:20:53;;;;;;;;;;;;;;;;;;5059108;28;20030;-64
2024/02/04 02:23:41;;;;;;;;;;;;;;;;;;5060954;28;19931;-64
2024/02/04 02:26:31;;;;;;;;;;;;;;;;;;5052348;28;19932;-64
2024/02/04 02:29:16;;;;;;;;;;;;;;;;;;5038664;28;19935;-64
2024/02/04 02:32:04;;;;;;;;;;;;;;;;;;5043947;28;19932;-64
2024/02/04 02:34:50;;;;;;;;;;;;;;;;;;5054289;28;19950;-64
2024/02/04 02:37:37;;;;;;;;;;;;;;;;;;5040367;28;19940;-64
2024/02/04 02:40:23;;;;;;;;;;;;;;;;;;5057288;28;19932;-64
2024/02/04 02:43:10;;;;;;;;;;;;;;;;;;5045179;28;19932;-64
2024/02/04 02:45:56;;;;;;;;;;;;;;;;;;5047626;28;19952;-64
2024/02/04 02:48:42;;;;;;;;;;;;;;;;;;5046192;28;19933;-64
2024/02/04 02:51:27;;;;;;;;;;;;;;;;;;5051157;28;19936;-64
2024/02/04 02:54:13;;;;;;;;;;;;;;;;;;5055866;28;19932;-64
2024/02/04 02:57:01;;;;;;;;;;;;;;;;;;5047035;28;19939;-64
2024/02/04 02:59:48;;;;;;;;;;;;;;;;;;5049100;28;19948;-64
2024/02/04 03:02:34;;;;;;;;;;;;;;;;;;5046557;28;19932;-64
2024/02/04 03:05:20;;;;;;;;;;;;;;;;;;5042508;28;19932;-64
2024/02/04 03:08:06;;;;;;;;;;;;;;;;;;5035584;28;19932;-64
2024/02/04 03:10:51;;;;;;;;;;;;;;;;;;5041553;28;19939;-64
2024/02/04 03:13:38;;;;;;;;;;;;;;;;;;5051667;28;20421;-64
2024/02/04 03:16:25;;;;;;;;;;;;;;;;;;5044025;28;19932;-64
2024/02/04 03:19:11;;;;;;;;;;;;;;;;;;5047281;28;19951;-64
2024/02/04 03:21:57;;;;;;;;;;;;;;;;;;5042663;28;19931;-64
2024/02/04 03:24:42;;;;;;;;;;;;;;;;;;5028508;28;19933;-64
2024/02/04 03:27:28;;;;;;;;;;;;;;;;;;5050777;28;20294;-64
2024/02/04 03:30:14;;;;;;;;;;;;;;;;;;5044144;28;20286;-64
2024/02/04 03:33:04;;;;;;;;;;;;;;;;;;5039742;28;19932;-64
2024/02/04 03:35:49;;;;;;;;;;;;;;;;;;5046969;28;19948;-64
2024/02/04 03:38:35;;;;;;;;;;;;;;;;;;5055454;28;19931;-64
2024/02/04 03:41:21;;;;;;;;;;;;;;;;;;5050849;22;19936;-65
2024/02/04 03:44:07;;;;;;;;;;;;;;;;;;5052223;28;20330;-65
2024/02/04 03:46:55;;;;;;;;;;;;;;;;;;5033919;28;19932;-65
2024/02/04 03:49:42;;;;;;;;;;;;;;;;;;5021707;28;19943;-65
2024/02/04 03:52:30;;;;;;;;;;;;;;;;;;5019328;28;19932;-65
2024/02/04 03:55:16;;;;;;;;;;;;;;;;;;5031720;28;19932;-65
2024/02/04 03:58:03;;;;;;;;;;;;;;;;;;5029108;28;19932;-65
2024/02/04 04:00:49;;;;;;;;;;;;;;;;;;5019209;28;19940;-65
2024/02/04 04:03:35;;;;;;;;;;;;;;;;;;5030758;28;19933;-65
2024/02/04 04:06:22;;;;;;;;;;;;;;;;;;5031338;28;19932;-65
2024/02/04 04:09:07;;;;;;;;;;;;;;;;;;5013327;28;19932;-65
2024/02/04 04:11:53;;;;;;;;;;;;;;;;;;5032343;28;20012;-65
2024/02/04 04:14:39;;;;;;;;;;;;;;;;;;5031367;28;20309;-65
2024/02/04 04:17:26;;;;;;;;;;;;;;;;;;5031187;28;20360;-65
2024/02/04 04:20:12;;;;;;;;;;;;;;;;;;5030599;28;20456;-65
2024/02/04 04:22:59;;;;;;;;;;;;;;;;;;5035096;28;19932;-65
2024/02/04 04:25:45;;;;;;;;;;;;;;;;;;5032361;28;19995;-65
2024/02/04 04:28:31;;;;;;;;;;;;;;;;;;5038033;28;19936;-65
2024/02/04 04:31:19;;;;;;;;;;;;;;;;;;5032328;28;19936;-65
2024/02/04 04:34:05;;;;;;;;;;;;;;;;;;5032746;28;19948;-65
2024/02/04 04:36:53;;;;;;;;;;;;;;;;;;5030637;28;20302;-65
2024/02/04 04:39:42;;;;;;;;;;;;;;;;;;5034669;28;19932;-65
2024/02/04 04:42:28;;;;;;;;;;;;;;;;;;5031776;28;19932;-65
2024/02/04 04:45:16;;;;;;;;;;;;;;;;;;5029934;28;19932;-65
2024/02/04 04:48:04;;;;;;;;;;;;;;;;;;5028865;28;19933;-65
2024/02/04 04:50:50;;;;;;;;;;;;;;;;;;5018226;28;19936;-65
2024/02/04 04:53:36;;;;;;;;;;;;;;;;;;5030726;28;19932;-65
2024/02/04 04:56:25;;;;;;;;;;;;;;;;;;5033266;28;19948;-65
2024/02/04 04:59:11;;;;;;;;;;;;;;;;;;5013876;28;20394;-65
2024/02/04 05:02:01;;;;;;;;;;;;;;;;;;5030927;28;19936;-65
2024/02/04 05:04:47;;;;;;;;;;;;;;;;;;5034889;28;19932;-65
2024/02/04 05:07:33;;;;;;;;;;;;;;;;;;5030513;28;19948;-65
2024/02/04 05:10:18;;;;;;;;;;;;;;;;;;5035370;28;19932;-65
2024/02/04 05:13:07;;;;;;;;;;;;;;;;;;5024091;28;19935;-65
2024/02/04 05:15:53;;;;;;;;;;;;;;;;;;5030605;28;19940;-65
2024/02/04 05:18:42;;;;;;;;;;;;;;;;;;5030369;28;19940;-65
2024/02/04 05:21:27;;;;;;;;;;;;;;;;;;5029637;28;19931;-65
2024/02/04 05:24:16;;;;;;;;;;;;;;;;;;5025353;28;19936;-65
2024/02/04 05:27:04;;;;;;;;;;;;;;;;;;5029964;28;19932;-65
2024/02/04 05:29:53;;;;;;;;;;;;;;;;;;5031502;28;19944;-65
2024/02/04 05:32:39;;;;;;;;;;;;;;;;;;5031585;28;19932;-65
2024/02/04 05:35:24;;;;;;;;;;;;;;;;;;5021267;28;19932;-65
2024/02/04 05:38:12;;;;;;;;;;;;;;;;;;5019338;28;19932;-65
2024/02/04 05:40:58;;;;;;;;;;;;;;;;;;5030294;28;20398;-65
2024/02/04 05:43:45;;;;;;;;;;;;;;;;;;5031483;28;20402;-65
2024/02/04 05:46:35;;;;;;;;;;;;;;;;;;5025867;28;19944;-65
2024/02/04 05:49:20;;;;;;;;;;;;;;;;;;5028408;28;20000;-65
2024/02/04 05:52:06;;;;;;;;;;;;;;;;;;5025060;28;20394;-65
2024/02/04 05:54:52;;;;;;;;;;;;;;;;;;5030134;28;20394;-65
2024/02/04 05:57:40;;;;;;;1.90;0.82;;;;;;;;;;5013053;28;20414;-65
2024/02/04 06:00:26;;;;;;;1.10;0.60;;;;;;;;;;5020557;28;20045;-64
2024/02/04 06:03:14;;;;;;;1.52;0.80;;;;;;;;;;5019017;28;20053;-64
2024/02/04 06:05:59;;;;;;;1.85;0.80;;;;;;;;;;5016893;28;20396;-64
2024/02/04 06:08:46;;;;;;;1.10;0.80;;;;;;;;;;5028462;28;20053;-64
2024/02/04 06:11:31;;;;;;;1.42;0.70;;;;;;;;;;5030593;28;20050;-64
2024/02/04 06:14:19;;;;;;;0.70;0.60;;;;;;;;;;5021075;28;20045;-64
2024/02/04 06:17:10;;;;;;;1.63;0.85;;;;;;;;;;5017550;28;20392;-64
2024/02/04 06:19:59;;;;;;;2.53;1.00;;;;;;;;;;5029605;28;20057;-64
2024/02/04 06:22:45;;;;;;;1.70;0.63;;;;;;;;;;5016040;28;20053;-64
2024/02/04 06:25:31;;;;;;;0.80;0.50;;;;;;;;;;5034366;28;20053;-64
2024/02/04 06:28:17;;;;;;;0.75;0.52;;;;;;;;;;5034300;28;20053;-64
2024/02/04 06:31:09;;;;;;;1.05;0.68;;;;;;;;;;5034001;28;20045;-64
2024/02/04 06:33:57;;;;;;;1.48;0.60;;;;;;;;;;5034137;28;20053;-64
2024/02/04 06:36:47;;;;;;;0.98;0.63;;;;;;;;;;5033594;28;20062;-64
2024/02/04 06:39:35;;;;;;;1.00;0.60;;;;;;;;;;5027213;28;20058;-65
2024/02/04 06:42:24;;;;;;;1.10;0.60;;;;;;;;;;5030834;28;20672;-65
2024/02/04 06:45:10;;;;;;;0.60;0.52;;;;;;;;;;5024624;28;20053;-65
2024/02/04 06:47:56;;;;;;;1.90;0.80;;;;;;;;;;5035261;28;20061;-65
2024/02/04 06:50:43;;;;;;;1.67;0.70;;;;;;;;;;5019544;28;20049;-65
2024/02/04 06:53:33;;;;;;;;;;;;;;;;;;5029426;28;20053;-64
2024/02/04 06:56:19;;;;;;;1.10;0.70;;;;;;;;;;5032178;28;19964;-65
2024/02/04 06:59:07;;;;;;;2.63;0.90;;;;;;;;;;5036136;28;20049;-65
2024/02/04 07:01:53;;;;;;;1.65;0.90;;;;;;;;;;5032554;28;20058;-65
2024/02/04 07:04:39;;;;;;;1.48;0.77;;;;;;;;;;5030736;28;20053;-65
2024/02/04 07:07:25;;;;;;;2.88;0.80;;;;;;;;;;5033827;28;20049;-65
2024/02/04 07:10:12;;;;;;;4.05;0.77;;;;;;;;;;5033468;28;20050;-65
2024/02/04 07:13:00;;;;;;;2.42;0.88;;;;;;;;;;5018278;28;20076;-65
2024/02/04 07:15:49;;;;;;;2.33;0.90;;;;;;;;;;5034625;28;20515;-65
2024/02/04 07:18:37;;;;;;;1.23;0.73;;;;;;;;;;5031981;28;20412;-65
2024/02/04 07:21:23;;;;;;;3.17;0.73;;;;;;;;;;5037632;28;20061;-65
2024/02/04 07:24:11;;;;;;;2.50;0.80;;;;;;;;;;5036117;28;20061;-65
2024/02/04 07:27:01;;;;;;;1.67;0.80;;;;;;;;;;5030481;28;20416;-65
2024/02/04 07:29:47;;;;;;;1.52;0.77;;;;;;;;;;5032120;28;20057;-65
2024/02/04 07:32:34;;;;;;;1.27;0.70;;;;;;;;;;5031850;28;20057;-65
2024/02/04 07:35:19;;;;;;;1.60;1.08;;;;;;;;;;5027281;28;20045;-65
2024/02/04 07:38:08;;;;;;;1.83;0.90;;;;;;;;;;5023021;28;20053;-65
2024/02/04 07:40:58;;;;;;;1.20;0.60;;;;;;;;;;5033448;28;20049;-65
2024/02/04 07:43:46;;;;;;;1.00;0.75;;;;;;;;;;5019427;28;20058;-65
2024/02/04 07:46:31;;;;;;;1.85;0.80;;;;;;;;;;5031235;28;20057;-65
2024/02/04 07:49:17;;;;;;;1.30;1.00;;;;;;;;;;5032588;28;20495;-65
2024/02/04 07:52:03;;;;;;;2.05;0.75;;;;;;;;;;5051348;28;20053;-65
2024/02/04 07:54:54;;;;;;;1.02;0.60;;;;;;;;;;5036435;28;20487;-65
2024/02/04 07:57:42;;;;;;;1.00;0.63;;;;;;;;;;5030915;28;20049;-65
2024/02/04 08:00:29;;;;;;;1.35;0.70;;;;;;;;;;5027982;28;20057;-65
2024/02/04 08:03:15;;;;;;;1.63;0.70;;;;;;;;;;5029975;28;20049;-65
2024/02/04 08:06:02;;;;;;;1.58;0.70;;;;;;;;;;5033137;28;20507;-65
2024/02/04 08:08:50;;;;;;;2.60;0.80;;;;;;;;;;5030216;28;20404;-65
2024/02/04 08:11:41;;;;;;;1.13;0.80;;;;;;;;;;5031230;28;20065;-64
2024/02/04 08:14:27;;;;;;;1.77;0.77;;;;;;;;;;5029010;28;20053;-64
2024/02/04 08:17:17;;;;;;;2.10;0.80;;;;;;;;;;5028813;28;20049;-64
2024/02/04 08:20:03;;;;;;;3.08;0.98;;;;;;;;;;5030765;28;20049;-64
2024/02/04 08:22:52;;;;;;;1.00;0.77;;;;;;;;;;5016296;28;20440;-64
2024/02/04 08:25:41;;;;;;;2.47;0.77;;;;;;;;;;4973357;28;92175;-64
2024/02/04 08:29:40;;;;;;;1.77;0.80;;;;;;;;;;7440917;19;21002;-63
2024/02/04 08:32:25;;;;;;;1.60;0.77;;;;;;;;;;7441669;19;20269;-63
2024/02/04 08:35:09;;;;;;;1.65;0.88;;;;;;;;;;7439016;19;19929;-63
2024/02/04 08:37:56;;;;;;;2.00;0.77;;;;;;;;;;7439954;19;20308;-63
2024/02/04 08:40:40;;;;;;;1.15;0.93;;;;;;;;;;7441643;19;20575;-63
2024/02/04 08:43:26;;;;;;;1.40;1.00;;;;;;;;;;7440265;19;19914;-63
2024/02/04 08:46:13;;;;;;;3.92;1.23;;;;;;;;;;7437685;19;19918;-63
2024/02/04 08:49:00;;;;;;;1.10;0.60;;;;;;;;;;7438037;19;19915;-63
2024/02/04 08:51:44;;;;;;;1.10;0.75;;;;;;;;;;7440112;19;20353;-63
2024/02/04 08:54:28;;;;;;;1.10;0.82;;;;;;;;;;7440311;19;19928;-63
2024/02/04 08:57:17;;;;;;;1.92;1.10;;;;;;;;;;7433597;19;19918;-63
2024/02/04 09:00:04;;;;;;;2.28;1.20;;;;;;;;;;7438781;19;19919;-63
2024/02/04 09:02:51;;;;;;;1.05;0.73;;;;;;;;;;7438614;19;19946;-63
2024/02/04 09:05:38;;;;;;;2.60;0.95;;;;;;;;;;7435496;19;19922;-63
2024/02/04 09:08:27;;;;;;;1.52;0.93;;;;;;;;;;7437388;19;19930;-63
2024/02/04 09:11:18;;;;;;;1.02;0.73;;;;;;;;;;7439338;19;19956;-63
2024/02/04 09:14:04;;;;;;;3.05;0.93;;;;;;;;;;7438160;19;19915;-63
2024/02/04 09:16:48;;;;;;;2.08;0.90;;;;;;;;;;7433998;19;19922;-63
2024/02/04 09:19:37;;;;;;;1.67;0.80;;;;;;;;;;7440598;19;19915;-63
2024/02/04 09:22:24;;;;;;;1.80;0.80;;;;;;;;;;7439974;19;20326;-63
2024/02/04 09:25:13;;;;;;;1.77;0.90;;;;;;;;;;7439829;19;19926;-63
2024/02/04 09:27:57;;;;;;;1.35;1.20;;;;;;;;;;7434418;19;20002;-63
2024/02/04 09:30:41;;;;;;;1.30;0.90;;;;;;;;;;7438143;19;20022;-63
2024/02/04 09:33:28;;;;;;;2.55;1.50;;;;;;;;;;7438719;19;19926;-63
2024/02/04 09:36:22;;;;;;;8.95;1.50;;;;;;;;;;7432060;19;20254;-63
2024/02/04 09:55:09;;;;;;;;;;;;;;;;;;7415447;19;20318;-75
2024/02/04 09:57:55;;;;;;;;;;;;;;;;;;7414501;19;19918;-75
2024/02/04 10:00:39;;;;;;;;;;;;;;;;;;7426430;19;20243;-75
2024/02/04 10:03:26;;;;;;;;;;;;;;;;;;7431091;19;20026;-75
2024/02/04 10:06:12;;;;;;;;;;;;;;;;;;7428509;19;19939;-75
2024/02/04 10:08:56;;;;;;;;;;;;;;;;;;7431340;19;20364;-75
2024/02/04 10:11:43;;;;;;;;;;;;;;;;;;7430991;19;19957;-75
2024/02/04 10:14:29;;;;;;;;;;;;;;;;;;7428227;19;20374;-75
2024/02/04 10:17:13;;;;;;;;;;;;;;;;;;7426678;19;19933;-75
2024/02/04 10:19:57;;;;;;;;;;;;;;;;;;7431175;19;19919;-75
2024/02/04 10:22:41;;;;;;;;;;;;;;;;;;7428882;19;19942;-74
2024/02/04 10:25:28;;;;;;;;;;;;;;;;;;7431506;19;19999;-75
2024/02/04 10:28:17;;;;;;;;;;;;;;;;;;7429135;19;20341;-75
2024/02/04 10:31:03;;;;;;;;;;;;;;;;;;7430350;19;20371;-74
2024/02/04 10:33:47;;;;;;;;;;;;;;;;;;7426953;19;19919;-74
2024/02/04 10:36:34;;;;;;;;;;;;;;;;;;7427857;19;19914;-75
2024/02/04 10:39:18;;;;;;;;;;;;;;;;;;7428636;19;19922;-75
2024/02/04 10:42:05;;;;;;;;;;;;;;;;;;7428560;19;19919;-75
2024/02/04 10:44:51;;;;;;;;;;;;;;;;;;7427952;19;19986;-75
2024/02/04 10:47:35;;;;;;;;;;;;;;;;;;7425455;19;20357;-75
2024/02/04 10:50:22;;;;;;;;;;;;;;;;;;7429093;19;20004;-76
2024/02/04 10:53:09;;;;;;;;;;;;;;;;;;7430112;19;19930;-74
2024/02/04 10:55:56;;;;;;;;;;;;;;;;;;7428217;19;20342;-76
2024/02/04 10:58:42;;;;;;;;;;;;;;;;;;7431003;19;19915;-76
2024/02/04 11:01:31;;;;;;;;;;;;;;;;;;7429714;19;19915;-75
2024/02/04 11:04:17;;;;;;;;;;;;;;;;;;7426342;19;19926;-75
2024/02/04 11:07:03;;;;;;;;;;;;;;;;;;7398804;19;19990;-75
2024/02/04 11:09:52;;;;;;;;;;;;;;;;;;7399531;19;19943;-76
2024/02/04 11:12:36;;;;;;;;;;;;;;;;;;7385555;19;19915;-75
2024/02/04 11:15:20;;;;;;;;;;;;;;;;;;7382219;19;19949;-75
2024/02/04 11:18:18;;;;;;;;;;;;;;;;;;7067568;19;5013721;-75
2024/02/04 11:31:48;;;;;;;;;;;;;;;;;;7231445;19;3626581;-76
2024/02/04 11:34:32;;;;;;;;;;;;;;;;;;7420469;19;19937;-76
2024/02/04 11:37:19;;;;;;;;;;;;;;;;;;7415102;19;19920;-75
2024/02/04 11:40:07;;;;;;;;;;;;;;;;;;7416737;19;19926;-76
2024/02/04 11:42:53;;;;;;;;;;;;;;;;;;7416431;19;19910;-75
2024/02/04 11:45:40;;;;;;;;;;;;;;;;;;7422092;19;19923;-76
2024/02/04 11:48:36;;;;;;;;;;;;;;;;;;7415359;19;19990;-75
2024/02/04 11:51:24;;;;;;;;;;;;;;;;;;7423189;19;19944;-80
2024/02/04 11:54:12;;;;;;;;;;;;;;;;;;7416949;19;20321;-77
2024/02/04 11:56:57;;;;;;;;;;;;;;;;;;7417842;19;19928;-75
2024/02/04 11:59:43;;;;;;;;;;;;;;;;;;7416358;19;19923;-74
2024/02/04 12:02:30;;;;;;;;;;;;;;;;;;7420204;19;20519;-75
2024/02/04 12:05:16;;;;;;;;;;;;;;;;;;7429001;19;20308;-75
2024/02/04 12:08:04;;;;;;;;;;;;;;;;;;7412137;19;19935;-75
2024/02/04 12:10:48;;;;;;;;;;;;;;;;;;7428415;19;19935;-76
2024/02/04 12:13:32;;;;;;;;;;;;;;;;;;7415462;19;20300;-75
2024/02/04 12:16:19;;;;;;;;;;;;;;;;;;7415820;19;20031;-76
2024/02/04 12:19:03;;;;;;;;;;;;;;;;;;7416602;19;20053;-76
2024/02/04 12:21:52;;;;;;;;;;;;;;;;;;7422073;19;20440;-75
2024/02/04 12:24:36;;;;;;;;;;;;;;;;;;7422975;19;19998;-76
2024/02/04 12:27:22;;;;;;;;;;;;;;;;;;7422391;19;19915;-76
2024/02/04 12:30:08;;;;;;;;;;;;;;;;;;7420091;19;19923;-75
2024/02/04 12:32:58;;;;;;;;;;;;;;;;;;7392783;19;19911;-75
2024/02/04 12:35:44;;;;;;;;;;;;;;;;;;7394847;19;19919;-75
2024/02/04 12:38:33;;;;;;;;;;;;;;;;;;7393552;19;19915;-76
2024/02/04 12:41:22;;;;;;;;;;;;;;;;;;7393263;19;19940;-75
2024/02/04 12:44:06;;;;;;;;;;;;;;;;;;7396496;19;19982;-75
2024/02/04 12:46:52;;;;;;;;;;;;;;;;;;7396459;19;19919;-75
2024/02/04 12:49:39;;;;;;;;;;;;;;;;;;7399655;19;19929;-75
2024/02/04 12:52:25;;;;;;;;;;;;;;;;;;7399595;19;19929;-76
2024/02/04 12:55:24;;;;;;;;;;;;;;;;;;7397670;19;19944;-75
2024/02/04 12:58:12;;;;;;;;;;;;;;;;;;7393226;19;19923;-75
2024/02/04 13:01:02;;;;;;;;;;;;;;;;;;7395583;19;19926;-75
2024/02/04 13:03:50;;;;;;;;;;;;;;;;;;7398201;19;20234;-75
2024/02/04 13:06:40;;;;;;;;;;;;;;;;;;7396680;19;19943;-76
2024/02/04 13:09:26;;;;;;;;;;;;;;;;;;7394304;19;19926;-76
2024/02/04 13:12:17;;;;;;;;;;;;;;;;;;7398651;19;19926;-75
2024/02/04 13:15:03;;;;;;;;;;;;;;;;;;7394673;19;19923;-76
2024/02/04 13:17:47;;;;;;;;;;;;;;;;;;7391264;19;19922;-75
2024/02/04 13:20:31;;;;;;;;;;;;;;;;;;7399087;19;19940;-75
2024/02/04 13:23:15;;;;;;;;;;;;;;;;;;7394281;19;19922;-75
2024/02/04 13:26:04;;;;;;;;;;;;;;;;;;7394875;19;19970;-75
2024/02/04 13:28:53;;;;;;;;;;;;;;;;;;7395648;19;19967;-76
2024/02/04 13:31:39;;;;;;;;;;;;;;;;;;7396016;19;19925;-77
2024/02/04 13:34:29;;;;;;;;;;;;;;;;;;7395334;19;19914;-76
2024/02/04 13:37:18;;;;;;;;;;;;;;;;;;7394027;19;19952;-76
2024/02/04 13:40:06;;;;;;;;;;;;;;;;;;7398799;19;19919;-77
2024/02/04 13:42:50;;;;;;;;;;;;;;;;;;7392593;19;19907;-76
2024/02/04 13:45:39;;;;;;;;;;;;;;;;;;7397257;19;20015;-77
2024/02/04 13:48:25;;;;;;;;;;;;;;;;;;7393691;19;19914;-77
2024/02/04 13:51:09;;;;;;;;;;;;;;;;;;7399715;19;19922;-76
2024/02/04 13:53:56;;;;;;;;;;;;;;;;;;7394992;19;19949;-76
2024/02/04 13:56:42;;;;;;;;;;;;;;;;;;7392100;19;20351;-76
2024/02/04 13:59:28;;;;;;;;;;;;;;;;;;7396485;19;19930;-77
2024/02/04 14:02:15;;;;;;;;;;;;;;;;;;7395456;19;19926;-76
2024/02/04 14:05:01;;;;;;;;;;;;;;;;;;7392867;19;20349;-75
2024/02/04 14:07:45;;;;;;;;;;;;;;;;;;7393789;19;20002;-77
2024/02/04 14:10:29;;;;;;;;;;;;;;;;;;7397013;19;19952;-76
2024/02/04 14:13:13;;;;;;;;;;;;;;;;;;7393469;19;20004;-78
2024/02/04 14:16:03;;;;;;;;;;;;;;;;;;7387688;19;19932;-77
2024/02/04 14:18:52;;;;;;;;;;;;;;;;;;7395298;19;19925;-78
2024/02/04 14:21:36;;;;;;;;;;;;;;;;;;7388307;19;20243;-78
2024/02/04 14:24:25;;;;;;;;;;;;;;;;;;7385456;19;19914;-77
2024/02/04 14:27:12;;;;;;;;;;;;;;;;;;7382263;19;19911;-76
2024/02/04 14:29:59;;;;;;;;;;;;;;;;;;7385964;19;19915;-77
2024/02/04 14:32:43;;;;;;;;;;;;;;;;;;7385497;19;19914;-76
2024/02/04 14:35:30;;;;;;;;;;;;;;;;;;7384785;19;19997;-76
2024/02/04 14:38:14;;;;;;;;;;;;;;;;;;7384047;19;19944;-76
2024/02/04 14:41:01;;;;;;;;;;;;;;;;;;7388994;19;20633;-76
2024/02/04 14:43:44;;;;;;;;;;;;;;;;;;7385320;19;19926;-76
2024/02/04 14:46:31;;;;;;;;;;;;;;;;;;7380973;19;19937;-75
2024/02/04 14:49:18;;;;;;;;;;;;;;;;;;7384490;19;20287;-76
2024/02/04 14:52:05;;;;;;;;;;;;;;;;;;7388339;19;19927;-76
2024/02/04 14:54:49;;;;;;;;;;;;;;;;;;7339605;19;19919;-75
2024/02/04 14:57:33;;;;;;;;;;;;;;;;;;7379156;19;19938;-78
2024/02/04 15:12:43;;;;;;;1.75;0.82;;;;;;;;;;7436684;19;20359;-81
2024/02/04 15:15:28;;;;;;;1.85;0.98;;;;;;;;;;7444494;19;19926;-81
2024/02/04 15:18:14;;;;;;;1.90;0.80;;;;;;;;;;7444270;19;20434;-81
2024/02/04 15:20:59;;;;;;;1.13;0.82;;;;;;;;;;7444010;19;19926;-81
2024/02/04 15:23:46;;;;;;;2.15;1.30;;;;;;;;;;7442809;19;19930;-82
2024/02/04 15:26:30;;;;;;;1.92;0.95;;;;;;;;;;7442299;19;19933;-80
2024/02/04 15:29:21;;;;;;;1.48;1.00;;;;;;;;;;7442889;19;20754;-82
2024/02/04 15:32:07;;;;;;;2.35;0.95;;;;;;;;;;7441094;19;20018;-81
2024/02/04 15:34:53;;;;;;;1.13;0.93;;;;;;;;;;7443592;19;20446;-81
2024/02/04 15:37:40;;;;;;;1.38;0.90;;;;;;;;;;7439352;19;19974;-81
2024/02/04 15:43:17;;;;;;;3.63;2.03;;;;;;;;;;7452316;19;19939;-80
2024/02/04 15:46:10;;;;;;;1.58;1.10;;;;;;;;;;7450973;19;19922;-81
2024/02/04 15:48:56;;;;;;;2.35;1.02;;;;;;;;;;7446483;19;19918;-81
2024/02/04 15:51:46;;;;;;;2.05;0.90;;;;;;;;;;7443696;19;19918;-81
2024/02/04 15:54:33;;;;;;;1.17;0.80;;;;;;;;;;7444138;19;19915;-80
2024/02/04 15:57:22;;;;;;;1.80;1.05;;;;;;;;;;7441746;19;19946;-80
2024/02/04 16:00:11;;;;;;;1.92;0.90;;;;;;;;;;7443830;19;19970;-80
2024/02/04 16:03:05;;;;;;;2.75;1.17;;;;;;;;;;7445223;19;20185;-80
2024/02/04 16:05:52;;;;;;;3.00;1.00;;;;;;;;;;7444167;19;19970;-80
2024/02/04 16:08:38;;;;;;;2.65;0.90;;;;;;;;;;7443854;19;19914;-80
2024/02/04 16:11:27;;;;;;;3.38;0.98;;;;;;;;;;7442346;19;19918;-80
2024/02/04 16:14:14;;;;;;;2.70;1.10;;;;;;;;;;7443773;19;19935;-81
2024/02/04 16:17:05;;;;;;;2.00;1.10;;;;;;;;;;7440591;19;19951;-81
2024/02/04 16:19:53;;;;;;;1.67;0.95;;;;;;;;;;7445141;19;19915;-81
2024/02/04 16:22:37;;;;;;;1.60;1.02;;;;;;;;;;7431441;19;19937;-82
2024/02/04 16:25:29;;;;;;;1.33;1.00;;;;;;;;;;7413361;19;19941;-81
2024/02/04 16:28:13;;;;;;;1.33;0.95;;;;;;;;;;7415870;19;19914;-82
2024/02/04 16:31:00;;;;;;;1.92;1.10;;;;;;;;;;7414603;19;19914;-82
2024/02/04 16:33:46;;;;;;;1.67;1.02;;;;;;;;;;7414591;19;19918;-82
2024/02/04 16:36:33;;;;;;;2.47;1.10;;;;;;;;;;7414236;19;19939;-82
2024/02/04 16:39:18;;;;;;;2.60;1.20;;;;;;;;;;7416219;19;19926;-82
2024/02/04 16:42:07;;;;;;;3.67;0.90;;;;;;;;;;7414733;19;20327;-82
2024/02/04 16:44:53;;;;;;;1.27;0.80;;;;;;;;;;7415277;19;19918;-82
2024/02/04 16:47:40;;;;;;;1.42;0.85;;;;;;;;;;7414877;19;19922;-81
2024/02/04 16:50:26;;;;;;;3.00;1.08;;;;;;;;;;7414235;19;19922;-81
2024/02/04 16:53:14;;;;;;;2.33;1.13;;;;;;;;;;7413147;19;19919;-81
2024/02/04 16:56:01;;;;;;;1.20;0.98;;;;;;;;;;7413690;19;19919;-82
2024/02/04 16:58:48;;;;;;;1.38;0.75;;;;;;;;;;7415334;19;19914;-81
2024/02/04 17:01:33;;;;;;;1.67;0.90;;;;;;;;;;7413921;19;20414;-81
2024/02/04 17:04:20;;;;;;;1.63;0.77;;;;;;;;;;7416578;19;19978;-81
2024/02/04 17:07:05;;;;;;;2.97;0.88;;;;;;;;;;7412095;19;19915;-82
2024/02/04 17:09:57;;;;;;;1.63;1.10;;;;;;;;;;7415240;19;19913;-82
2024/02/04 17:12:44;;;;;;;2.08;1.17;;;;;;;;;;7410872;19;19919;-82
2024/02/04 17:15:32;;;;;;;1.33;0.88;;;;;;;;;;7412593;19;19915;-82
2024/02/04 17:18:27;;;;;;;1.00;0.70;;;;;;;;;;7411616;19;19919;-82
2024/02/04 17:21:11;;;;;;;2.40;1.13;;;;;;;;;;7413452;19;19910;-82
2024/02/04 17:24:03;;;;;;;1.23;0.82;;;;;;;;;;7413669;19;20011;-82
2024/02/04 17:26:55;;;;;;;1.02;0.70;;;;;;;;;;7412768;19;19927;-82
2024/02/04 17:29:40;;;;;;;1.00;0.70;;;;;;;;;;7413097;19;19927;-82
2024/02/04 17:32:30;;;;;;;1.38;0.90;;;;;;;;;;7412436;19;20364;-82
2024/02/04 17:35:19;;;;;;;1.75;1.05;;;;;;;;;;7412806;19;20347;-82
2024/02/04 17:38:04;;;;;;;2.00;1.02;;;;;;;;;;7411242;19;20258;-82
2024/02/04 17:40:48;;;;;;;0.90;0.80;;;;;;;;;;7413050;19;19923;-82
2024/02/04 17:43:36;;;;;;;1.75;1.00;;;;;;;;;;7412028;19;20008;-82
2024/02/04 17:46:23;;;;;;;2.00;1.10;;;;;;;;;;7412471;19;19946;-82
2024/02/04 17:49:10;;;;;;;1.50;0.63;;;;;;;;;;7413437;19;19923;-82
2024/02/04 17:51:56;;;;;;;1.10;0.82;;;;;;;;;;7412413;19;19911;-82
2024/02/04 17:54:43;;;;;;;1.20;0.80;;;;;;;;;;7413386;19;20348;-82
2024/02/04 17:57:27;;;;;;;1.35;0.93;;;;;;;;;;7411989;19;19914;-82
2024/02/04 18:00:18;;;;;;;1.67;0.93;;;;;;;;;;7415639;19;19915;-82
2024/02/04 18:03:07;;;;;;;1.30;0.85;;;;;;;;;;7415391;19;21518;-82
2024/02/04 18:05:54;;;;;;;2.75;0.70;;;;;;;;;;7412945;19;19915;-82
2024/02/04 18:08:41;;;;;;;2.30;0.85;;;;;;;;;;7415325;19;20330;-82
2024/02/04 18:11:29;;;;;;;1.13;0.80;;;;;;;;;;7413350;19;19926;-82
2024/02/04 18:14:13;;;;;;;2.33;1.30;;;;;;;;;;7412899;19;20370;-82
2024/02/04 18:17:05;;;;;;;1.77;1.00;;;;;;;;;;7411209;19;19935;-82
2024/02/04 18:19:52;;;;;;;5.18;2.25;;;;;;;;;;7412888;19;19930;-82
2024/02/04 18:22:37;;;;;;;1.50;1.00;;;;;;;;;;7413635;19;19985;-82
2024/02/04 18:25:26;;;;;;;1.00;0.70;;;;;;;;;;7411560;19;19918;-82
2024/02/04 18:28:12;;;;;;;0.60;0.50;;;;;;;;;;7411562;19;19922;-82
2024/02/04 18:30:57;;;;;;;1.35;0.57;;;;;;;;;;7413333;19;19959;-82
2024/02/04 18:33:45;;;;;;;2.63;0.70;;;;;;;;;;7413262;19;19984;-82
2024/02/04 18:36:31;;;;;;;0.80;0.52;;;;;;;;;;7410925;19;19935;-82
2024/02/04 18:39:16;;;;;;;0.80;0.73;;;;;;;;;;7412248;19;20340;-82
2024/02/04 18:42:01;;;;;;;0.73;0.47;;;;;;;;;;7412542;19;19925;-82